createdAt,value
2022-08-29T00:08:58.671Z,1017.98
2022-08-29T00:23:59.048Z,1017.89
2022-08-29T00:38:58.717Z,1017.90
2022-08-29T00:53:58.982Z,1017.92
2022-08-29T01:08:58.950Z,1017.85
2022-08-29T01:23:58.775Z,1017.91
2022-08-29T01:38:58.870Z,1018.03
2022-08-29T01:53:59.219Z,1018.14
2022-08-29T02:08:58.939Z,1018.16
2022-08-29T02:24:15.961Z,1018.21
2022-08-29T02:38:59.271Z,1018.33
2022-08-29T02:53:59.366Z,1018.26
2022-08-29T03:08:59.222Z,1018.26
2022-08-29T03:23:59.246Z,1018.20
2022-08-29T03:38:59.250Z,1018.13
2022-08-29T03:53:59.394Z,1018.02
2022-08-29T04:08:59.375Z,1018.03
2022-08-29T04:23:59.253Z,1018.17
2022-08-29T04:38:59.379Z,1018.05
2022-08-29T04:53:59.453Z,1018.27
2022-08-29T05:09:00.129Z,1018.21
2022-08-29T05:23:59.468Z,1018.25
2022-08-29T05:38:59.605Z,1018.49
2022-08-29T05:53:59.504Z,1018.38
2022-08-29T06:08:59.614Z,1018.49
2022-08-29T06:23:59.986Z,1018.55
2022-08-29T06:38:59.735Z,1018.57
2022-08-29T06:53:59.764Z,1018.73
2022-08-29T07:08:59.709Z,1018.75
2022-08-29T07:23:59.849Z,1018.78
2022-08-29T07:38:59.834Z,1018.83
2022-08-29T07:53:59.910Z,1018.84
2022-08-29T08:08:59.930Z,1018.76
2022-08-29T08:23:59.952Z,1018.95
2022-08-29T08:39:00.026Z,1018.91
2022-08-29T08:54:00.078Z,1018.91
2022-08-29T09:08:59.963Z,1018.93
2022-08-29T09:24:00.180Z,1018.92
2022-08-29T09:39:00.164Z,1018.82
2022-08-29T09:54:00.161Z,1018.85
2022-08-29T10:09:00.107Z,1018.77
2022-08-29T10:24:00.106Z,1018.58
2022-08-29T10:39:00.290Z,1018.68
2022-08-29T10:54:00.529Z,1018.43
2022-08-29T11:09:00.348Z,1018.43
2022-08-29T11:24:00.330Z,1018.08
2022-08-29T11:39:00.524Z,1017.93
2022-08-29T11:54:00.498Z,1017.81
2022-08-29T12:09:04.513Z,1017.70
2022-08-29T12:24:00.562Z,1017.67
2022-08-29T12:39:00.540Z,1017.57
2022-08-29T12:54:00.725Z,1017.42
2022-08-29T13:09:00.763Z,1017.19
2022-08-29T13:24:00.787Z,1017.11
2022-08-29T13:39:00.880Z,1017.04
2022-08-29T13:54:00.875Z,1016.91
2022-08-29T14:09:01.044Z,1016.73
2022-08-29T14:24:00.988Z,1016.62
2022-08-29T14:39:01.002Z,1016.45
2022-08-29T14:54:01.006Z,1016.49
2022-08-29T15:09:00.995Z,1016.22
2022-08-29T15:24:01.106Z,1016.22
2022-08-29T15:39:01.109Z,1015.91
2022-08-29T15:54:01.036Z,1015.80
2022-08-29T16:09:01.092Z,1015.68
2022-08-29T16:24:01.119Z,1015.66
2022-08-29T16:39:01.271Z,1015.65
2022-08-29T16:54:01.136Z,1015.72
2022-08-29T17:09:04.232Z,1015.71
2022-08-29T17:24:01.389Z,1015.65
2022-08-29T17:39:01.360Z,1015.77
2022-08-29T17:54:01.597Z,1015.72
2022-08-29T18:09:01.572Z,1015.92
2022-08-29T18:24:01.664Z,1015.80
2022-08-29T18:39:01.371Z,1015.87
2022-08-29T18:54:01.584Z,1015.84
2022-08-29T19:09:01.562Z,1015.91
2022-08-29T19:24:01.749Z,1016.05
2022-08-29T19:39:01.701Z,1016.13
2022-08-29T19:54:01.639Z,1016.14
2022-08-29T20:09:01.707Z,1016.15
2022-08-29T20:24:01.800Z,1016.05
2022-08-29T20:39:01.829Z,1016.21
2022-08-29T20:54:01.920Z,1016.22
2022-08-29T21:09:01.915Z,1016.37
2022-08-29T21:24:01.917Z,1016.35
2022-08-29T21:39:01.912Z,1016.29
2022-08-29T21:54:01.955Z,1016.34
2022-08-29T22:09:02.002Z,1016.20
2022-08-29T22:24:02.056Z,1016.43
2022-08-29T22:39:02.168Z,1016.55
2022-08-29T22:54:02.140Z,1016.60
2022-08-29T23:09:02.166Z,1016.67
2022-08-29T23:24:02.331Z,1016.78
2022-08-29T23:39:02.292Z,1016.73
2022-08-29T23:54:02.282Z,1016.75
